KR-0323 weather

Meeting Plaza Heliport
Busan, Busan Gwang'yeogsi, South Korea

Public forecast

Using degrees Celsius for public forecast. Weather courtesy of forecast.io.

Closest aviation weather report (METAR) to Meeting Plaza Heliport

Closest report is Gimhae International Airport, 10.4 nm (19.2 km) W. Retrieved 2020/08/03 20:00 UTC (23 minutes ago):

RKPK 032000Z 15004KT 4800 BR FEW020 SCT200 25/23 Q1012 RMK SLP121 8/508 9/202

Closest aviation forecast (TAF) to Meeting Plaza Heliport

Closest forecast is Gimhae International Airport, 10.4 nm (19.2 km) W. Retrieved 2020/08/03 18:00 UTC (2 hours ago):

TAF RKPK 031700Z 0318/0424 18006KT 6000 SCT015 SCT030 BKN200 TN24/0320Z TX31/0405Z TEMPO 0318/0321 4800 BR SCT015 BKN025 BKN200 BECMG 0402/0403 18010KT BECMG 0410/0411 18006KT